Time;durP1;ratioP1;P1;durP2;ratioP2;P2;SDS_P1;SDS_P2;PMS_P1;PMS_P2;Temp;Humidity;BMP_temperature;BMP_pressure;BME280_temperature;BME280_humidity;BME280_pressure;Samples;Min_cycle;Max_cycle;Signal;HPM_P1;HPM_P2
2023/09/01 00:00:19;;;;;;;64.40;61.80;;;;;;;;;;5052167;28;20423;-43
2023/09/01 00:02:46;;;;;;;68.80;66.30;;;;;;;;;;5043787;28;20602;-44
2023/09/01 00:05:14;;;;;;;69.53;66.93;;;;;;;;;;5052324;28;20537;-42
2023/09/01 00:07:41;;;;;;;73.67;70.97;;;;;;;;;;5038124;28;20437;-41
2023/09/01 00:10:09;;;;;;;68.73;66.13;;;;;;;;;;5042338;28;20511;-40
2023/09/01 00:12:36;;;;;;;68.37;65.87;;;;;;;;;;5046622;28;20491;-40
2023/09/01 00:15:04;;;;;;;68.87;66.37;;;;;;;;;;5049460;28;20459;-42
2023/09/01 00:17:33;;;;;;;75.47;72.87;;;;;;;;;;5047677;28;20464;-42
2023/09/01 00:20:01;;;;;;;70.97;68.60;;;;;;;;;;5049489;28;20459;-41
2023/09/01 00:22:28;;;;;;;72.77;70.07;;;;;;;;;;5040953;28;20948;-40
2023/09/01 00:24:55;;;;;;;72.37;69.53;;;;;;;;;;5051708;28;20489;-42
2023/09/01 00:27:23;;;;;;;68.53;66.03;;;;;;;;;;5035629;28;20500;-44
2023/09/01 00:29:50;;;;;;;65.90;63.60;;;;;;;;;;5044063;28;20475;-45
2023/09/01 00:32:18;;;;;;;67.63;65.23;;;;;;;;;;5043668;28;20439;-41
2023/09/01 00:34:47;;;;;;;75.87;73.07;;;;;;;;;;5051660;28;20463;-41
2023/09/01 00:37:14;;;;;;;70.00;67.60;;;;;;;;;;5049501;28;20432;-42
2023/09/01 00:39:41;;;;;;;75.40;72.77;;;;;;;;;;5046253;28;20854;-40
2023/09/01 00:42:09;;;;;;;71.57;68.90;;;;;;;;;;5033821;28;20432;-40
2023/09/01 00:44:37;;;;;;;73.30;70.87;;;;;;;;;;5045142;28;20799;-42
2023/09/01 00:47:05;;;;;;;71.83;69.13;;;;;;;;;;5050837;28;20467;-42
2023/09/01 00:49:33;;;;;;;80.00;77.00;;;;;;;;;;5044812;28;20467;-41
2023/09/01 00:52:02;;;;;;;74.53;71.73;;;;;;;;;;5051366;28;20431;-43
2023/09/01 00:54:31;;;;;;;80.20;77.40;;;;;;;;;;5043579;28;20538;-41
2023/09/01 00:56:58;;;;;;;73.43;71.03;;;;;;;;;;5052126;28;20467;-41
2023/09/01 00:59:25;;;;;;;73.60;70.90;;;;;;;;;;5035800;28;20492;-41
2023/09/01 01:01:53;;;;;;;78.90;76.20;;;;;;;;;;5051506;28;20445;-44
2023/09/01 01:04:21;;;;;;;74.50;71.90;;;;;;;;;;5051362;28;20534;-46
2023/09/01 01:06:53;;;;;;;75.67;73.20;;;;;;;;;;5051145;28;20509;-40
2023/09/01 01:09:27;;;;;;;77.80;75.30;;;;;;;;;;5043042;28;20520;-41
2023/09/01 01:11:57;;;;;;;79.90;77.20;;;;;;;;;;5051596;28;20517;-41
2023/09/01 01:14:27;;;;;;;80.43;77.73;;;;;;;;;;5050383;28;20542;-47
2023/09/01 01:16:55;;;;;;;79.67;76.60;;;;;;;;;;5055482;28;20439;-41
2023/09/01 01:19:29;;;;;;;78.53;75.47;;;;;;;;;;5051073;28;20462;-40
2023/09/01 01:21:59;;;;;;;77.30;74.50;;;;;;;;;;5051323;28;20836;-43
2023/09/01 01:24:28;;;;;;;79.47;76.67;;;;;;;;;;5054802;28;20477;-40
2023/09/01 01:26:56;;;;;;;83.53;80.73;;;;;;;;;;5055094;28;20478;-45
2023/09/01 01:29:23;;;;;;;86.17;83.37;;;;;;;;;;5057910;28;21023;-43
2023/09/01 01:31:52;;;;;;;89.60;86.70;;;;;;;;;;5051217;28;21015;-41
2023/09/01 01:34:22;;;;;;;84.20;81.33;;;;;;;;;;5049187;28;20459;-46
2023/09/01 01:36:54;;;;;;;83.70;81.00;;;;;;;;;;5050069;28;20520;-44
2023/09/01 01:39:23;;;;;;;85.77;82.87;;;;;;;;;;5051137;28;20449;-44
2023/09/01 01:41:55;;;;;;;85.20;82.30;;;;;;;;;;5050984;28;20436;-44
2023/09/01 01:44:27;;;;;;;88.83;85.73;;;;;;;;;;5050690;28;20500;-41
2023/09/01 01:46:55;;;;;;;87.80;84.80;;;;;;;;;;5050384;28;20525;-42
2023/09/01 01:49:22;;;;;;;87.43;84.53;;;;;;;;;;5050616;28;20919;-43
2023/09/01 01:51:50;;;;;;;85.80;82.57;;;;;;;;;;5057396;28;20502;-41
2023/09/01 01:54:17;;;;;;;85.23;82.30;;;;;;;;;;5051603;28;20494;-43
2023/09/01 01:56:45;;;;;;;90.27;87.20;;;;;;;;;;5050336;28;20558;-41
2023/09/01 01:59:14;;;;;;;86.03;83.00;;;;;;;;;;5050618;28;20440;-41
2023/09/01 02:01:42;;;;;;;85.40;82.50;;;;;;;;;;5059192;28;20463;-43
2023/09/01 02:04:09;;;;;;;85.13;82.33;;;;;;;;;;5051189;28;20461;-43
2023/09/01 02:06:36;;;;;;;84.50;81.50;;;;;;;;;;5027016;28;20487;-41
2023/09/01 02:09:09;;;;;;;84.70;81.70;;;;;;;;;;5019178;28;20527;-42
2023/09/01 02:11:36;;;;;;;90.80;87.83;;;;;;;;;;5019179;28;20465;-41
2023/09/01 02:14:04;;;;;;;87.13;84.00;;;;;;;;;;5035307;28;20459;-44
2023/09/01 02:16:33;;;;;;;88.73;85.70;;;;;;;;;;5047074;28;20979;-41
2023/09/01 02:19:00;;;;;;;87.43;84.70;;;;;;;;;;5050514;28;20526;-41
2023/09/01 02:21:28;;;;;;;93.10;90.00;;;;;;;;;;5050198;28;20433;-41
2023/09/01 02:23:55;;;;;;;96.57;93.07;;;;;;;;;;5050269;28;20530;-41
2023/09/01 02:26:24;;;;;;;97.80;94.80;;;;;;;;;;5052719;28;20466;-41
2023/09/01 02:28:52;;;;;;;97.10;93.80;;;;;;;;;;5054437;28;20526;-47
2023/09/01 02:31:20;;;;;;;100.23;96.57;;;;;;;;;;5054120;28;20471;-42
2023/09/01 02:33:49;;;;;;;101.77;98.33;;;;;;;;;;5054154;28;20451;-42
2023/09/01 02:36:27;;;;;;;99.43;95.97;;;;;;;;;;5038830;28;20461;-41
2023/09/01 02:38:55;;;;;;;90.33;87.53;;;;;;;;;;5026333;28;20435;-41
2023/09/01 02:41:22;;;;;;;93.67;90.63;;;;;;;;;;5025924;28;20472;-41
2023/09/01 02:43:50;;;;;;;92.90;89.80;;;;;;;;;;5025900;28;21042;-42
2023/09/01 02:46:17;;;;;;;93.37;90.43;;;;;;;;;;5048469;28;20464;-42
2023/09/01 02:48:45;;;;;;;89.87;86.83;;;;;;;;;;5054070;28;20442;-41
2023/09/01 02:51:14;;;;;;;92.57;89.10;;;;;;;;;;5053540;28;20561;-41
2023/09/01 02:53:41;;;;;;;99.57;96.10;;;;;;;;;;5053858;28;20810;-42
2023/09/01 02:56:09;;;;;;;98.20;95.10;;;;;;;;;;5053250;28;20466;-41
2023/09/01 02:58:37;;;;;;;95.33;92.23;;;;;;;;;;5053759;28;20437;-43
2023/09/01 03:01:08;;;;;;;95.90;92.80;;;;;;;;;;5053664;28;20475;-41
2023/09/01 03:03:36;;;;;;;67.70;65.20;;;;;;;;;;5053426;28;20455;-41
2023/09/01 03:06:05;;;;;;;67.93;65.43;;;;;;;;;;5052992;28;20469;-42
2023/09/01 03:08:34;;;;;;;70.97;68.37;;;;;;;;;;5045678;28;20894;-44
2023/09/01 03:11:03;;;;;;;72.67;69.73;;;;;;;;;;5061333;28;20501;-43
2023/09/01 03:13:30;;;;;;;70.47;67.47;;;;;;;;;;5064618;28;20458;-40
2023/09/01 03:15:58;;;;;;;70.20;67.70;;;;;;;;;;5063213;28;20540;-41
2023/09/01 03:18:26;;;;;;;69.20;66.70;;;;;;;;;;5063707;28;20431;-41
2023/09/01 03:20:53;;;;;;;72.27;69.43;;;;;;;;;;5063879;28;20927;-42
2023/09/01 03:23:21;;;;;;;68.30;65.80;;;;;;;;;;5048113;28;20467;-43
2023/09/01 03:25:57;;;;;;;69.60;67.00;;;;;;;;;;5062474;28;20464;-42
2023/09/01 03:28:24;;;;;;;69.57;67.17;;;;;;;;;;5063442;28;20435;-42
2023/09/01 03:30:52;;;;;;;74.03;71.40;;;;;;;;;;5054689;28;20479;-41
2023/09/01 03:33:19;;;;;;;71.83;69.20;;;;;;;;;;5063194;28;20457;-43
2023/09/01 03:35:47;;;;;;;71.93;69.20;;;;;;;;;;5062705;28;20526;-40
2023/09/01 03:38:14;;;;;;;68.80;66.20;;;;;;;;;;5062630;28;20435;-41
2023/09/01 03:40:42;;;;;;;70.70;68.10;;;;;;;;;;5063524;28;20446;-46
2023/09/01 03:43:11;;;;;;;71.40;68.80;;;;;;;;;;5062918;28;20447;-41
2023/09/01 03:45:38;;;;;;;74.03;71.43;;;;;;;;;;5052640;28;20486;-42
2023/09/01 03:48:06;;;;;;;70.83;68.33;;;;;;;;;;5062515;28;20440;-43
2023/09/01 03:50:34;;;;;;;68.90;66.40;;;;;;;;;;5054644;28;20439;-41
2023/09/01 03:53:02;;;;;;;71.83;69.13;;;;;;;;;;5062665;28;20518;-41
2023/09/01 03:55:29;;;;;;;72.17;69.67;;;;;;;;;;5062240;28;20834;-42
2023/09/01 03:57:57;;;;;;;74.47;71.00;;;;;;;;;;5062486;28;20489;-43
2023/09/01 04:00:27;;;;;;;73.97;71.30;;;;;;;;;;5064013;28;20439;-42
2023/09/01 04:02:54;;;;;;;82.00;78.87;;;;;;;;;;5082704;28;20426;-41
2023/09/01 04:05:22;;;;;;;88.63;85.50;;;;;;;;;;5075328;28;20467;-40
2023/09/01 04:07:49;;;;;;;83.30;80.50;;;;;;;;;;5063283;28;20526;-41
2023/09/01 04:10:17;;;;;;;82.30;79.20;;;;;;;;;;5054342;28;20445;-41
2023/09/01 04:12:44;;;;;;;87.37;84.13;;;;;;;;;;5054208;28;20494;-42
2023/09/01 04:15:12;;;;;;;82.43;79.23;;;;;;;;;;5062071;28;20479;-42
2023/09/01 04:17:41;;;;;;;87.47;84.30;;;;;;;;;;5062390;28;20435;-44
2023/09/01 04:20:10;;;;;;;82.07;78.93;;;;;;;;;;5062205;28;20438;-40
2023/09/01 04:22:37;;;;;;;82.77;79.87;;;;;;;;;;5041774;28;20439;-44
2023/09/01 04:25:06;;;;;;;85.07;82.17;;;;;;;;;;5057747;28;20459;-47
2023/09/01 04:27:34;;;;;;;86.30;82.77;;;;;;;;;;5061949;28;20442;-40
2023/09/01 04:30:03;;;;;;;81.90;79.10;;;;;;;;;;5062172;28;20461;-42
2023/09/01 04:32:37;;;;;;;82.77;79.70;;;;;;;;;;5061683;28;20914;-41
2023/09/01 04:35:06;;;;;;;82.03;78.80;;;;;;;;;;5062088;28;20483;-41
2023/09/01 04:37:34;;;;;;;85.03;81.73;;;;;;;;;;5061948;28;20443;-41
2023/09/01 04:40:05;;;;;;;83.87;80.67;;;;;;;;;;5062438;28;20491;-45
2023/09/01 04:42:33;;;;;;;81.57;78.53;;;;;;;;;;5061728;28;20526;-42
2023/09/01 04:45:00;;;;;;;84.27;81.07;;;;;;;;;;5061670;28;20463;-41
2023/09/01 04:47:28;;;;;;;81.67;78.87;;;;;;;;;;5061960;28;20511;-41
2023/09/01 04:49:56;;;;;;;82.50;79.50;;;;;;;;;;5061370;28;20478;-41
2023/09/01 04:52:25;;;;;;;82.17;78.80;;;;;;;;;;5061317;28;20494;-41
2023/09/01 04:55:09;;;;;;;83.60;80.60;;;;;;;;;;5053120;28;20481;-43
2023/09/01 04:57:37;;;;;;;84.20;81.10;;;;;;;;;;5045042;28;20467;-40
2023/09/01 05:00:15;;;;;;;85.63;82.50;;;;;;;;;;5061334;28;20554;-42
2023/09/01 05:02:43;;;;;;;87.70;84.17;;;;;;;;;;5047824;28;20554;-43
2023/09/01 05:05:11;;;;;;;88.20;85.00;;;;;;;;;;5049713;28;21139;-43
2023/09/01 05:07:40;;;;;;;91.10;87.70;;;;;;;;;;5045558;28;20442;-41
2023/09/01 05:10:08;;;;;;;94.20;90.90;;;;;;;;;;5060788;28;20432;-43
2023/09/01 05:12:36;;;;;;;87.80;84.70;;;;;;;;;;5048600;28;20498;-45
2023/09/01 05:15:04;;;;;;;81.93;78.93;;;;;;;;;;5052782;28;20903;-41
2023/09/01 05:17:32;;;;;;;71.53;69.07;;;;;;;;;;5062362;28;20440;-41
2023/09/01 05:20:00;;;;;;;72.17;69.37;;;;;;;;;;5079862;28;20859;-41
2023/09/01 05:22:28;;;;;;;64.43;62.13;;;;;;;;;;5062164;28;20427;-42
2023/09/01 05:24:57;;;;;;;62.37;60.20;;;;;;;;;;5060131;28;20490;-41
2023/09/01 05:27:24;;;;;;;59.90;57.90;;;;;;;;;;5059337;28;20612;-42
2023/09/01 05:29:52;;;;;;;59.40;57.20;;;;;;;;;;5059544;28;20444;-44
2023/09/01 05:32:21;;;;;;;59.40;57.37;;;;;;;;;;5059686;28;20494;-42
2023/09/01 05:34:49;;;;;;;55.37;53.47;;;;;;;;;;5059651;28;20461;-46
2023/09/01 05:37:16;;;;;;;56.33;54.40;;;;;;;;;;5059607;28;20431;-39
2023/09/01 05:39:44;;;;;;;61.73;59.63;;;;;;;;;;5059558;28;20435;-39
2023/09/01 05:42:14;;;;;;;56.87;54.97;;;;;;;;;;5076350;28;20469;-39
2023/09/01 05:44:42;;;;;;;58.83;56.77;;;;;;;;;;5078051;28;20493;-39
2023/09/01 05:47:09;;;;;;;63.10;60.90;;;;;;;;;;5059437;28;20500;-39
2023/09/01 05:49:37;;;;;;;66.33;63.93;;;;;;;;;;5051570;28;20439;-40
2023/09/01 05:52:05;;;;;;;63.10;60.80;;;;;;;;;;5059669;28;20470;-39
2023/09/01 05:54:32;;;;;;;65.70;63.50;;;;;;;;;;5058906;28;20486;-40
2023/09/01 05:57:01;;;;;;;62.17;59.87;;;;;;;;;;5059872;28;20441;-39
2023/09/01 05:59:30;;;;;;;57.20;55.20;;;;;;;;;;5051664;28;20502;-44
2023/09/01 06:01:58;;;;;;;54.87;52.77;;;;;;;;;;5056338;28;20435;-39
2023/09/01 06:04:25;;;;;;;58.43;56.13;;;;;;;;;;5056242;28;20454;-42
2023/09/01 06:06:52;;;;;;;54.97;53.07;;;;;;;;;;5064066;28;20541;-40
2023/09/01 06:09:20;;;;;;;47.23;45.53;;;;;;;;;;5063057;28;20940;-47
2023/09/01 06:11:48;;;;;;;49.57;47.57;;;;;;;;;;5057202;28;20441;-43
2023/09/01 06:14:15;;;;;;;46.07;44.07;;;;;;;;;;5063820;28;20458;-44
2023/09/01 06:16:47;;;;;;;45.73;44.20;;;;;;;;;;5059942;28;20550;-43
2023/09/01 06:19:14;;;;;;;46.33;44.67;;;;;;;;;;5052130;28;20490;-42
2023/09/01 06:21:42;;;;;;;41.37;40.00;;;;;;;;;;5044186;28;20462;-43
2023/09/01 06:24:09;;;;;;;38.90;37.40;;;;;;;;;;5047127;28;20557;-42
2023/09/01 06:26:36;;;;;;;37.13;35.73;;;;;;;;;;5053815;28;20516;-41
2023/09/01 06:29:04;;;;;;;38.50;36.90;;;;;;;;;;5047584;28;20857;-42
2023/09/01 06:31:31;;;;;;;31.47;30.17;;;;;;;;;;5044402;28;20522;-42
2023/09/01 06:34:00;;;;;;;29.80;28.70;;;;;;;;;;5053765;28;21009;-39
2023/09/01 06:36:28;;;;;;;28.37;27.37;;;;;;;;;;5053836;28;20535;-40
2023/09/01 06:38:56;;;;;;;25.80;24.97;;;;;;;;;;5054056;28;20435;-39
2023/09/01 06:41:23;;;;;;;21.80;20.87;;;;;;;;;;5037905;28;20437;-41
2023/09/01 06:43:50;;;;;;;21.40;20.60;;;;;;;;;;5045419;28;20965;-40
2023/09/01 06:46:18;;;;;;;16.60;15.70;;;;;;;;;;5053457;28;20455;-39
2023/09/01 06:48:48;;;;;;;16.33;15.43;;;;;;;;;;5054103;28;20438;-41
2023/09/01 06:51:17;;;;;;;10.80;10.50;;;;;;;;;;5053972;28;20435;-41
2023/09/01 06:53:44;;;;;;;9.80;9.40;;;;;;;;;;5038031;28;20509;-40
2023/09/01 06:56:12;;;;;;;11.07;10.23;;;;;;;;;;5053384;28;20478;-40
2023/09/01 06:58:39;;;;;;;10.10;9.50;;;;;;;;;;5054002;28;20506;-44
2023/09/01 07:01:07;;;;;;;9.23;8.83;;;;;;;;;;5045534;28;20431;-40
2023/09/01 07:03:35;;;;;;;8.17;7.87;;;;;;;;;;5053688;28;20551;-40
2023/09/01 07:06:03;;;;;;;8.60;8.30;;;;;;;;;;5053315;28;20535;-40
2023/09/01 07:08:32;;;;;;;8.50;8.20;;;;;;;;;;5053762;28;20430;-42
2023/09/01 07:11:00;;;;;;;8.57;8.00;;;;;;;;;;5053177;28;20431;-41
2023/09/01 07:13:27;;;;;;;8.70;8.40;;;;;;;;;;5051103;28;20485;-45
2023/09/01 07:15:55;;;;;;;8.10;7.70;;;;;;;;;;5046454;28;20578;-42
2023/09/01 07:18:23;;;;;;;7.93;7.53;;;;;;;;;;5053153;28;20434;-40
2023/09/01 07:20:51;;;;;;;7.20;6.80;;;;;;;;;;5053511;28;20246;-41
2023/09/01 07:23:18;;;;;;;7.90;7.50;;;;;;;;;;5036576;28;20448;-40
2023/09/01 07:25:47;;;;;;;6.60;6.40;;;;;;;;;;5045086;28;20308;-40
2023/09/01 07:28:15;;;;;;;6.13;5.83;;;;;;;;;;5053099;28;20430;-39
2023/09/01 07:30:42;;;;;;;7.60;7.30;;;;;;;;;;5053257;28;20481;-40
2023/09/01 07:33:10;;;;;;;6.77;6.47;;;;;;;;;;5053279;28;20549;-47
2023/09/01 07:35:38;;;;;;;7.73;7.33;;;;;;;;;;5042967;28;20546;-41
2023/09/01 07:38:06;;;;;;;7.07;6.87;;;;;;;;;;5059199;28;20858;-40
2023/09/01 07:40:33;;;;;;;7.50;7.23;;;;;;;;;;5070908;28;20952;-39
2023/09/01 07:43:02;;;;;;;7.13;6.83;;;;;;;;;;5052531;28;20461;-39
2023/09/01 07:45:29;;;;;;;8.10;7.80;;;;;;;;;;5060279;28;20466;-40
2023/09/01 07:47:57;;;;;;;7.73;7.43;;;;;;;;;;5046025;28;20442;-40
2023/09/01 07:50:46;;;;;;;7.13;6.93;;;;;;;;;;5044194;28;20954;-39
2023/09/01 07:53:13;;;;;;;7.83;7.43;;;;;;;;;;5044983;28;20479;-40
2023/09/01 07:55:41;;;;;;;7.50;7.20;;;;;;;;;;5052317;28;21235;-39
2023/09/01 07:58:10;;;;;;;8.00;7.70;;;;;;;;;;5071768;28;20470;-43
2023/09/01 08:00:39;;;;;;;7.30;7.00;;;;;;;;;;5071987;28;20441;-41
2023/09/01 08:03:10;;;;;;;7.37;6.90;;;;;;;;;;5064922;28;20871;-39
2023/09/01 08:05:39;;;;;;;7.77;7.47;;;;;;;;;;5051232;28;20533;-42
2023/09/01 08:08:07;;;;;;;7.87;7.40;;;;;;;;;;5060203;28;20430;-44
2023/09/01 08:10:35;;;;;;;7.13;6.80;;;;;;;;;;5060188;28;20453;-43
2023/09/01 08:13:05;;;;;;;7.73;7.23;;;;;;;;;;5059586;28;20458;-39
2023/09/01 08:15:33;;;;;;;7.57;7.27;;;;;;;;;;5051170;28;21006;-40
2023/09/01 08:18:01;;;;;;;7.03;6.83;;;;;;;;;;5051354;28;20522;-42
2023/09/01 08:20:28;;;;;;;7.53;7.23;;;;;;;;;;5060434;28;20434;-41
2023/09/01 08:22:56;;;;;;;7.43;7.10;;;;;;;;;;5057914;28;20461;-43
2023/09/01 08:25:23;;;;;;;7.13;6.73;;;;;;;;;;5052219;28;20512;-39
2023/09/01 08:27:51;;;;;;;6.40;6.20;;;;;;;;;;5043326;28;20522;-45
2023/09/01 08:30:19;;;;;;;7.37;7.07;;;;;;;;;;5051286;28;20431;-39
2023/09/01 08:32:48;;;;;;;6.57;6.27;;;;;;;;;;5050767;28;20949;-41
2023/09/01 08:35:15;;;;;;;6.47;6.20;;;;;;;;;;5042157;28;20520;-39
2023/09/01 08:37:43;;;;;;;7.07;6.77;;;;;;;;;;5051087;28;20445;-39
2023/09/01 08:40:11;;;;;;;6.50;6.20;;;;;;;;;;5051146;28;20530;-42
2023/09/01 08:42:44;;;;;;;6.83;6.53;;;;;;;;;;5048075;28;20431;-41
2023/09/01 08:45:12;;;;;;;7.00;6.60;;;;;;;;;;5045959;28;20463;-40
2023/09/01 08:47:43;;;;;;;6.47;6.17;;;;;;;;;;5040825;28;20790;-40
2023/09/01 08:50:12;;;;;;;8.57;8.03;;;;;;;;;;5045932;28;20443;-42
2023/09/01 08:52:41;;;;;;;8.87;8.23;;;;;;;;;;5048405;28;21076;-41
2023/09/01 08:55:09;;;;;;;8.00;7.60;;;;;;;;;;5044747;28;20538;-43
2023/09/01 08:57:37;;;;;;;7.87;7.43;;;;;;;;;;5051350;28;20435;-40
2023/09/01 09:00:07;;;;;;;7.70;7.30;;;;;;;;;;5044861;28;20440;-40
2023/09/01 09:02:35;;;;;;;6.40;6.20;;;;;;;;;;5048714;28;20431;-44
2023/09/01 09:05:03;;;;;;;6.10;5.90;;;;;;;;;;5050414;28;20570;-43
2023/09/01 09:07:32;;;;;;;6.80;6.60;;;;;;;;;;5049781;28;20435;-40
2023/09/01 09:10:00;;;;;;;6.07;5.70;;;;;;;;;;5035789;28;20485;-43
2023/09/01 09:12:35;;;;;;;6.40;6.20;;;;;;;;;;5049328;28;20431;-40
2023/09/01 09:15:03;;;;;;;5.80;5.60;;;;;;;;;;5035831;28;20464;-42
2023/09/01 09:17:39;;;;;;;5.90;5.60;;;;;;;;;;5050740;28;20439;-40
2023/09/01 09:20:07;;;;;;;5.20;5.10;;;;;;;;;;5044822;28;20447;-43
2023/09/01 09:22:49;;;;;;;4.63;4.43;;;;;;;;;;5031638;28;20463;-40
2023/09/01 09:25:24;;;;;;;5.00;4.80;;;;;;;;;;5040721;28;20539;-41
2023/09/01 09:27:51;;;;;;;5.20;4.90;;;;;;;;;;5071042;28;20855;-41
2023/09/01 09:30:19;;;;;;;5.20;4.80;;;;;;;;;;5063244;28;20538;-40
2023/09/01 09:32:48;;;;;;;4.40;4.30;;;;;;;;;;5050356;28;20431;-40
2023/09/01 09:35:19;;;;;;;4.70;4.50;;;;;;;;;;5049302;28;20485;-40
2023/09/01 09:37:57;;;;;;;4.93;4.73;;;;;;;;;;5050916;28;20423;-40
2023/09/01 09:40:24;;;;;;;4.70;4.60;;;;;;;;;;5066915;28;20809;-40
2023/09/01 09:42:52;;;;;;;4.87;4.67;;;;;;;;;;5042283;28;20442;-41
2023/09/01 09:45:23;;;;;;;4.57;4.37;;;;;;;;;;5050024;28;20462;-40
2023/09/01 09:47:51;;;;;;;4.80;4.67;;;;;;;;;;5050244;28;20478;-40
2023/09/01 09:50:19;;;;;;;4.60;4.50;;;;;;;;;;5058025;28;20968;-42
2023/09/01 09:52:49;;;;;;;5.47;5.17;;;;;;;;;;5070644;28;20479;-43
2023/09/01 09:55:20;;;;;;;4.90;4.60;;;;;;;;;;5063757;28;20466;-41
2023/09/01 09:57:49;;;;;;;5.20;4.90;;;;;;;;;;5050400;28;20859;-42
2023/09/01 10:00:18;;;;;;;4.23;4.03;;;;;;;;;;5050265;28;20477;-44
2023/09/01 10:02:48;;;;;;;5.00;4.80;;;;;;;;;;5050267;28;20463;-40
2023/09/01 10:05:16;;;;;;;4.87;4.67;;;;;;;;;;5049866;28;20486;-46
2023/09/01 10:07:44;;;;;;;5.03;4.53;;;;;;;;;;5039776;28;20867;-40
2023/09/01 10:10:13;;;;;;;5.17;4.30;;;;;;;;;;5044726;28;20434;-42
2023/09/01 10:12:41;;;;;;;5.40;5.10;;;;;;;;;;5039514;28;20435;-45
2023/09/01 10:15:10;;;;;;;4.67;4.47;;;;;;;;;;5034873;28;20879;-43
2023/09/01 10:17:38;;;;;;;4.37;4.17;;;;;;;;;;5049980;28;20465;-44
2023/09/01 10:20:07;;;;;;;4.47;4.27;;;;;;;;;;5050373;28;20439;-42
2023/09/01 10:22:38;;;;;;;3.90;3.70;;;;;;;;;;5050074;28;20504;-44
2023/09/01 10:25:09;;;;;;;4.10;3.80;;;;;;;;;;5049925;28;20605;-44
2023/09/01 10:27:38;;;;;;;3.83;3.60;;;;;;;;;;5050176;28;20481;-39
2023/09/01 10:30:26;;;;;;;4.80;4.50;;;;;;;;;;5049917;28;21019;-43
2023/09/01 10:33:04;;;;;;;5.83;4.40;;;;;;;;;;5036832;28;20524;-46
2023/09/01 10:35:45;;;;;;;4.23;4.03;;;;;;;;;;5049568;28;20467;-44
2023/09/01 10:38:15;;;;;;;4.40;4.10;;;;;;;;;;5056389;28;20429;-44
2023/09/01 10:40:44;;;;;;;3.50;3.40;;;;;;;;;;5068508;28;20440;-47
2023/09/01 10:43:12;;;;;;;4.77;4.37;;;;;;;;;;5049362;28;20538;-43
2023/09/01 10:45:40;;;;;;;4.30;4.10;;;;;;;;;;5049890;28;20458;-42
2023/09/01 10:48:12;;;;;;;4.20;4.00;;;;;;;;;;5053484;28;20437;-42
2023/09/01 10:50:41;;;;;;;4.17;3.80;;;;;;;;;;5045037;28;20779;-46
2023/09/01 10:53:28;;;;;;;4.57;4.37;;;;;;;;;;5045246;28;20450;-42
2023/09/01 10:56:05;;;;;;;4.53;4.30;;;;;;;;;;5036716;28;20462;-46
2023/09/01 10:58:39;;;;;;;4.00;3.80;;;;;;;;;;5044747;28;20522;-44
2023/09/01 11:01:29;;;;;;;3.50;3.30;;;;;;;;;;5048438;28;20471;-42
2023/09/01 11:03:56;;;;;;;4.10;3.90;;;;;;;;;;5036732;28;20458;-44
2023/09/01 11:06:24;;;;;;;3.87;3.73;;;;;;;;;;5052628;28;20895;-41
2023/09/01 11:08:58;;;;;;;3.37;3.17;;;;;;;;;;5041942;28;20526;-44
2023/09/01 11:11:26;;;;;;;4.30;4.10;;;;;;;;;;5041851;28;20428;-43
2023/09/01 11:13:55;;;;;;;3.50;3.30;;;;;;;;;;5044506;28;20459;-42
2023/09/01 11:16:23;;;;;;;3.63;3.43;;;;;;;;;;5052477;28;20578;-44
2023/09/01 11:19:00;;;;;;;3.43;3.23;;;;;;;;;;5052889;28;20431;-44
2023/09/01 11:21:28;;;;;;;3.23;3.03;;;;;;;;;;5053047;28;20436;-42
2023/09/01 11:24:00;;;;;;;3.30;3.20;;;;;;;;;;5040972;28;21113;-45
2023/09/01 11:26:28;;;;;;;3.10;3.00;;;;;;;;;;5056495;28;20525;-46
2023/09/01 11:28:57;;;;;;;3.23;3.13;;;;;;;;;;5072695;28;20430;-42
2023/09/01 11:31:36;;;;;;;3.63;3.33;;;;;;;;;;5057418;28;20469;-41
2023/09/01 11:34:04;;;;;;;3.77;3.57;;;;;;;;;;5052689;28;20625;-44
2023/09/01 11:36:31;;;;;;;3.43;3.23;;;;;;;;;;5052316;28;20825;-46
2023/09/01 11:38:59;;;;;;;3.33;3.10;;;;;;;;;;5044827;28;20454;-42
2023/09/01 11:41:27;;;;;;;3.57;3.30;;;;;;;;;;5052601;28;20798;-42
2023/09/01 11:43:55;;;;;;;2.90;2.80;;;;;;;;;;5052383;28;20454;-43
2023/09/01 11:46:32;;;;;;;2.80;2.70;;;;;;;;;;5067613;28;20503;-42
2023/09/01 11:49:00;;;;;;;2.80;2.70;;;;;;;;;;5044973;28;20811;-43
2023/09/01 11:51:30;;;;;;;2.80;2.70;;;;;;;;;;5068099;28;20430;-45
2023/09/01 11:53:58;;;;;;;2.90;2.70;;;;;;;;;;5052442;28;20501;-45
2023/09/01 11:56:25;;;;;;;2.30;2.20;;;;;;;;;;5059059;28;20466;-41
2023/09/01 11:58:55;;;;;;;2.53;2.43;;;;;;;;;;5068766;28;20447;-42
2023/09/01 12:01:23;;;;;;;3.00;2.77;;;;;;;;;;5051877;28;21002;-42
2023/09/01 12:03:53;;;;;;;2.60;2.50;;;;;;;;;;5062757;28;20458;-44
2023/09/01 12:06:22;;;;;;;2.60;2.50;;;;;;;;;;5049811;28;20460;-42
2023/09/01 12:08:50;;;;;;;2.70;2.60;;;;;;;;;;5050558;28;20435;-42
2023/09/01 12:11:17;;;;;;;2.90;2.80;;;;;;;;;;5045903;28;20440;-41
2023/09/01 12:13:49;;;;;;;2.93;2.73;;;;;;;;;;5049862;28;20470;-42
2023/09/01 12:16:21;;;;;;;3.03;2.83;;;;;;;;;;5051447;28;20466;-43
2023/09/01 12:18:48;;;;;;;3.23;3.03;;;;;;;;;;5041853;28;20502;-44
2023/09/01 12:21:17;;;;;;;2.87;2.67;;;;;;;;;;5038019;28;20469;-46
2023/09/01 12:23:45;;;;;;;2.83;2.73;;;;;;;;;;5037097;28;20451;-43
2023/09/01 12:26:13;;;;;;;3.73;3.53;;;;;;;;;;5046162;28;20480;-46
2023/09/01 12:28:42;;;;;;;3.30;3.20;;;;;;;;;;5049096;28;21189;-46
2023/09/01 12:31:10;;;;;;;3.53;3.43;;;;;;;;;;5047002;28;20519;-42
2023/09/01 12:33:39;;;;;;;2.73;2.53;;;;;;;;;;5048791;28;20459;-41
2023/09/01 12:36:06;;;;;;;3.00;2.80;;;;;;;;;;5051370;28;20467;-42
2023/09/01 12:38:35;;;;;;;3.30;3.20;;;;;;;;;;5043423;28;20443;-43
2023/09/01 12:41:03;;;;;;;2.70;2.60;;;;;;;;;;5035947;28;20441;-43
2023/09/01 12:43:30;;;;;;;2.87;2.77;;;;;;;;;;5043230;28;20451;-41
2023/09/01 12:45:59;;;;;;;2.90;2.70;;;;;;;;;;5039507;28;20456;-41
2023/09/01 12:48:26;;;;;;;2.97;2.87;;;;;;;;;;5046675;28;20439;-41
2023/09/01 12:50:54;;;;;;;3.33;3.23;;;;;;;;;;5043025;28;20435;-44
2023/09/01 12:53:21;;;;;;;2.57;2.47;;;;;;;;;;5044595;28;20494;-41
2023/09/01 12:55:50;;;;;;;3.10;3.00;;;;;;;;;;5042910;28;20467;-42
2023/09/01 12:58:18;;;;;;;3.13;3.03;;;;;;;;;;5054093;28;20437;-41
2023/09/01 13:00:45;;;;;;;2.90;2.80;;;;;;;;;;5072624;28;20434;-41
2023/09/01 13:03:13;;;;;;;2.93;2.83;;;;;;;;;;5073654;28;20528;-44
2023/09/01 13:05:41;;;;;;;3.03;2.93;;;;;;;;;;5063658;28;20463;-42
2023/09/01 13:08:08;;;;;;;3.30;3.20;;;;;;;;;;5053937;28;20940;-44
2023/09/01 13:10:36;;;;;;;2.73;2.63;;;;;;;;;;5053020;28;20935;-45
2023/09/01 13:13:05;;;;;;;3.77;3.33;;;;;;;;;;5037205;28;21001;-41
2023/09/01 13:15:33;;;;;;;2.63;2.53;;;;;;;;;;5053771;28;21036;-42
2023/09/01 13:18:00;;;;;;;3.03;2.93;;;;;;;;;;5053737;28;20462;-43
2023/09/01 13:20:28;;;;;;;2.90;2.70;;;;;;;;;;5054201;28;20893;-42
2023/09/01 13:22:55;;;;;;;2.83;2.73;;;;;;;;;;5045268;28;20442;-42
2023/09/01 13:25:23;;;;;;;2.90;2.80;;;;;;;;;;5053833;28;20451;-49
2023/09/01 13:27:50;;;;;;;2.50;2.40;;;;;;;;;;5054037;28;20435;-41
2023/09/01 13:30:19;;;;;;;2.73;2.63;;;;;;;;;;5053948;28;20527;-44
2023/09/01 13:32:47;;;;;;;3.10;2.90;;;;;;;;;;5053648;28;20439;-41
2023/09/01 13:35:14;;;;;;;2.87;2.77;;;;;;;;;;5053299;28;20470;-44
2023/09/01 13:37:42;;;;;;;2.83;2.73;;;;;;;;;;5053645;28;20561;-44
2023/09/01 13:40:10;;;;;;;2.90;2.80;;;;;;;;;;5053466;28;20459;-44
2023/09/01 13:42:37;;;;;;;3.30;3.00;;;;;;;;;;5053699;28;20776;-49
2023/09/01 13:45:05;;;;;;;2.70;2.60;;;;;;;;;;5052490;28;20455;-42
2023/09/01 13:47:34;;;;;;;3.00;2.90;;;;;;;;;;5053106;28;20450;-41
2023/09/01 13:50:02;;;;;;;3.97;3.33;;;;;;;;;;5052697;28;20462;-45
2023/09/01 13:52:29;;;;;;;3.20;3.00;;;;;;;;;;5052944;28;20462;-44
2023/09/01 13:54:57;;;;;;;2.87;2.77;;;;;;;;;;5046328;28;20459;-45
2023/09/01 13:57:24;;;;;;;2.80;2.60;;;;;;;;;;5052698;28;20548;-45
2023/09/01 13:59:52;;;;;;;3.20;3.00;;;;;;;;;;5053139;28;20898;-45
2023/09/01 14:02:20;;;;;;;4.70;3.33;;;;;;;;;;5052715;28;20489;-41
2023/09/01 14:04:50;;;;;;;2.60;2.50;;;;;;;;;;5067705;28;20458;-46
2023/09/01 14:07:18;;;;;;;3.27;2.73;;;;;;;;;;5053479;28;20493;-44
2023/09/01 14:09:45;;;;;;;3.20;3.00;;;;;;;;;;5053543;28;20453;-41
2023/09/01 14:12:13;;;;;;;3.23;2.90;;;;;;;;;;5052641;28;20435;-40
2023/09/01 14:14:40;;;;;;;2.63;2.43;;;;;;;;;;5051031;28;20498;-42
2023/09/01 14:17:08;;;;;;;2.83;2.73;;;;;;;;;;5042249;28;21024;-43
2023/09/01 14:19:35;;;;;;;2.60;2.50;;;;;;;;;;5042876;28;20522;-43
2023/09/01 14:22:04;;;;;;;2.83;2.73;;;;;;;;;;5049363;28;20519;-42
2023/09/01 14:24:32;;;;;;;3.27;3.07;;;;;;;;;;5042177;28;20483;-46
2023/09/01 14:26:59;;;;;;;2.63;2.53;;;;;;;;;;5053960;28;20446;-41
2023/09/01 14:29:29;;;;;;;2.90;2.50;;;;;;;;;;5054082;28;20430;-46
2023/09/01 14:31:56;;;;;;;2.70;2.50;;;;;;;;;;5053836;28;20882;-41
2023/09/01 14:34:24;;;;;;;2.60;2.50;;;;;;;;;;5053636;28;20546;-41
2023/09/01 14:36:51;;;;;;;2.60;2.50;;;;;;;;;;5053136;28;20478;-41
2023/09/01 14:39:20;;;;;;;2.80;2.70;;;;;;;;;;5054192;28;20480;-46